createdAt,value
2022-09-04T00:00:48.217Z,13.70
2022-09-04T00:03:23.579Z,13.50
2022-09-04T00:05:52.607Z,13.80
2022-09-04T00:08:28.642Z,13.80
2022-09-04T00:10:59.966Z,13.60
2022-09-04T00:13:29.644Z,13.60
2022-09-04T00:15:59.551Z,13.40
2022-09-04T00:18:29.890Z,13.70
2022-09-04T00:20:59.541Z,13.40
2022-09-04T00:23:30.662Z,13.70
2022-09-04T00:33:31.259Z,13.50
2022-09-04T00:36:00.116Z,13.40
2022-09-04T00:38:36.207Z,13.40
2022-09-04T00:41:08.266Z,13.60
2022-09-04T00:44:02.286Z,13.40
2022-09-04T00:46:47.723Z,13.40
2022-09-04T00:49:37.466Z,13.30
2022-09-04T00:52:10.106Z,13.30
2022-09-04T00:54:52.500Z,13.30
2022-09-04T00:57:41.958Z,13.50
2022-09-04T01:00:50.553Z,13.40
2022-09-04T01:07:22.946Z,13.50
2022-09-04T01:10:19.074Z,13.30
2022-09-04T01:12:49.373Z,13.40
2022-09-04T01:15:20.137Z,13.40
2022-09-04T01:17:55.280Z,13.60
2022-09-04T01:20:28.360Z,13.60
2022-09-04T01:23:03.249Z,13.50
2022-09-04T01:25:34.784Z,13.50
2022-09-04T01:28:06.530Z,13.50
2022-09-04T01:30:37.897Z,13.40
2022-09-04T01:33:08.502Z,13.30
2022-09-04T01:35:40.328Z,13.10
2022-09-04T01:38:12.986Z,13.30
2022-09-04T01:40:44.183Z,13.10
2022-09-04T01:43:13.855Z,13.00
2022-09-04T01:45:56.754Z,13.10
2022-09-04T01:48:28.319Z,13.20
2022-09-04T01:50:56.377Z,13.20
2022-09-04T01:53:25.972Z,12.90
2022-09-04T01:55:58.580Z,13.10
2022-09-04T01:58:32.074Z,13.40
2022-09-04T02:01:02.139Z,13.50
2022-09-04T02:03:33.909Z,13.30
2022-09-04T02:06:03.698Z,13.30
2022-09-04T02:08:40.765Z,13.20
2022-09-04T02:11:10.019Z,13.20
2022-09-04T02:13:45.139Z,13.10
2022-09-04T02:16:16.290Z,13.40
2022-09-04T02:18:55.364Z,13.30
2022-09-04T02:21:27.295Z,13.20
2022-09-04T02:24:02.468Z,13.20
2022-09-04T02:26:31.419Z,13.00
2022-09-04T02:29:02.409Z,13.10
2022-09-04T02:31:39.576Z,12.80
2022-09-04T02:34:10.196Z,13.10
2022-09-04T02:36:42.218Z,13.20
2022-09-04T02:39:15.100Z,13.10
2022-09-04T02:41:50.905Z,13.20
2022-09-04T02:44:28.471Z,13.00
2022-09-04T02:47:01.645Z,12.60
2022-09-04T02:49:36.221Z,12.50
2022-09-04T02:52:10.272Z,12.50
2022-09-04T02:54:48.510Z,12.40
2022-09-04T02:57:20.364Z,12.50
2022-09-04T02:59:56.314Z,12.60
2022-09-04T03:02:26.557Z,12.90
2022-09-04T03:04:58.046Z,12.60
2022-09-04T03:07:27.285Z,12.50
2022-09-04T03:09:56.910Z,12.70
2022-09-04T03:12:30.859Z,12.90
2022-09-04T03:15:04.640Z,13.00
2022-09-04T03:17:36.317Z,12.70
2022-09-04T03:20:06.510Z,12.50
2022-09-04T03:22:35.900Z,12.70
2022-09-04T03:25:09.941Z,12.50
2022-09-04T03:27:37.854Z,12.50
2022-09-04T03:30:08.569Z,12.70
2022-09-04T03:32:40.174Z,12.80
2022-09-04T03:35:10.750Z,12.60
2022-09-04T03:38:10.438Z,12.40
2022-09-04T03:40:39.939Z,12.50
2022-09-04T03:43:31.790Z,12.30
2022-09-04T03:46:05.485Z,12.40
2022-09-04T03:48:44.710Z,12.50
2022-09-04T03:51:16.517Z,12.40
2022-09-04T03:53:45.571Z,12.20
2022-09-04T03:56:39.595Z,12.20
2022-09-04T03:59:08.484Z,12.00
2022-09-04T04:01:43.188Z,12.20
2022-09-04T04:04:25.660Z,12.50
2022-09-04T04:06:54.777Z,12.40
2022-09-04T04:09:39.076Z,12.20
2022-09-04T04:12:27.531Z,12.20
2022-09-04T04:15:27.710Z,11.90
2022-09-04T04:18:22.920Z,11.90
2022-09-04T04:20:55.632Z,11.80
2022-09-04T04:23:40.344Z,11.70
2022-09-04T04:26:09.911Z,11.90
2022-09-04T04:28:59.644Z,11.70
2022-09-04T04:31:34.734Z,11.80
2022-09-04T04:34:05.472Z,11.80
2022-09-04T04:36:37.796Z,11.80
2022-09-04T04:39:13.877Z,11.70
2022-09-04T04:42:05.514Z,11.70
2022-09-04T04:45:00.679Z,11.80
2022-09-04T04:47:37.595Z,11.90
2022-09-04T04:50:12.881Z,12.00
2022-09-04T04:52:45.940Z,12.00
2022-09-04T04:55:17.522Z,11.90
2022-09-04T04:57:56.087Z,11.90
2022-09-04T05:00:27.656Z,12.00
2022-09-04T05:03:02.599Z,11.90
2022-09-04T05:05:47.510Z,12.10
2022-09-04T05:08:20.165Z,12.10
2022-09-04T05:10:49.182Z,12.10
2022-09-04T05:13:21.267Z,12.10
2022-09-04T05:16:07.901Z,12.00
2022-09-04T05:18:37.600Z,12.00
2022-09-04T05:21:10.415Z,11.80
2022-09-04T05:23:40.157Z,11.90
2022-09-04T05:26:12.490Z,12.20
2022-09-04T05:28:46.774Z,12.40
2022-09-04T05:31:20.066Z,12.20
2022-09-04T05:33:52.825Z,12.10
2022-09-04T05:36:25.680Z,12.30
2022-09-04T05:38:59.348Z,12.30
2022-09-04T05:41:37.727Z,12.40
2022-09-04T05:44:17.392Z,12.40
2022-09-04T05:46:52.187Z,12.50
2022-09-04T05:49:26.419Z,12.60
2022-09-04T05:52:12.314Z,12.50
2022-09-04T05:54:50.636Z,12.20
2022-09-04T05:57:23.104Z,12.20
2022-09-04T06:00:04.104Z,12.20
2022-09-04T06:02:54.999Z,12.30
2022-09-04T06:05:37.762Z,12.70
2022-09-04T06:08:13.818Z,12.60
2022-09-04T06:10:48.578Z,12.70
2022-09-04T06:13:50.645Z,13.00
2022-09-04T06:16:26.031Z,13.00
2022-09-04T06:19:02.267Z,12.90
2022-09-04T06:22:08.898Z,12.80
2022-09-04T06:24:59.854Z,13.10
2022-09-04T06:27:38.374Z,13.30
2022-09-04T06:30:07.889Z,13.50
2022-09-04T06:32:58.044Z,13.60
2022-09-04T06:35:33.105Z,13.60
2022-09-04T06:38:18.368Z,13.90
2022-09-04T06:40:54.179Z,13.90
2022-09-04T06:43:29.591Z,13.90
2022-09-04T06:46:02.932Z,14.00
2022-09-04T06:48:37.289Z,14.20
2022-09-04T06:51:14.065Z,14.50
2022-09-04T06:53:49.894Z,14.40
2022-09-04T06:56:35.601Z,14.50
2022-09-04T06:59:23.697Z,14.60
2022-09-04T07:02:01.278Z,14.70
2022-09-04T07:04:37.099Z,14.80
2022-09-04T07:07:08.536Z,14.90
2022-09-04T07:09:38.385Z,15.20
2022-09-04T07:12:38.872Z,15.30
2022-09-04T07:15:34.861Z,15.60
2022-09-04T07:18:07.550Z,16.00
2022-09-04T07:20:37.198Z,16.10
2022-09-04T07:23:28.340Z,16.50
2022-09-04T07:26:03.941Z,16.90
2022-09-04T07:28:39.268Z,17.30
2022-09-04T07:31:09.497Z,17.60
2022-09-04T07:33:40.213Z,18.00
2022-09-04T07:36:11.259Z,18.50
2022-09-04T07:38:41.757Z,18.70
2022-09-04T07:41:13.018Z,19.00
2022-09-04T07:43:55.291Z,19.70
2022-09-04T07:46:26.517Z,20.20
2022-09-04T07:48:56.489Z,20.30
2022-09-04T07:51:25.976Z,20.30
2022-09-04T07:54:22.638Z,20.40
2022-09-04T07:57:33.422Z,20.50
2022-09-04T08:00:08.300Z,21.10
2022-09-04T08:02:47.392Z,21.40
2022-09-04T08:05:25.518Z,21.70
2022-09-04T08:08:15.258Z,21.20
2022-09-04T08:10:49.363Z,20.80
2022-09-04T08:13:39.328Z,20.50
2022-09-04T08:16:09.233Z,20.30
2022-09-04T08:18:53.154Z,20.70
2022-09-04T08:21:25.337Z,21.10
2022-09-04T08:24:20.784Z,20.70
2022-09-04T08:26:54.406Z,20.50
2022-09-04T08:29:39.931Z,20.30
2022-09-04T08:32:18.005Z,20.30
2022-09-04T08:35:00.327Z,20.40
2022-09-04T08:37:29.029Z,20.40
2022-09-04T08:40:09.631Z,20.30
2022-09-04T08:42:51.767Z,20.30
2022-09-04T08:46:06.911Z,20.40
2022-09-04T08:49:11.553Z,21.30
2022-09-04T08:52:13.018Z,21.60
2022-09-04T08:55:09.538Z,22.10
2022-09-04T08:57:50.431Z,22.60
2022-09-04T09:00:18.498Z,23.30
2022-09-04T09:03:00.925Z,23.40
2022-09-04T09:06:13.830Z,23.20
2022-09-04T09:09:20.456Z,23.70
2022-09-04T09:12:13.116Z,23.60
2022-09-04T09:15:02.824Z,23.90
2022-09-04T09:17:39.450Z,24.30
2022-09-04T09:20:20.131Z,24.50
2022-09-04T09:23:18.327Z,24.20
2022-09-04T09:25:53.763Z,24.50
2022-09-04T09:28:45.146Z,25.00
2022-09-04T09:31:38.213Z,24.60
2022-09-04T09:34:38.015Z,24.90
2022-09-04T09:37:33.097Z,24.90
2022-09-04T09:40:41.197Z,24.70
2022-09-04T09:43:35.215Z,24.70
2022-09-04T09:46:22.176Z,24.90
2022-09-04T09:49:14.850Z,25.20
2022-09-04T09:52:20.736Z,25.30
2022-09-04T09:55:10.813Z,25.70
2022-09-04T09:58:04.901Z,25.50
2022-09-04T10:00:36.680Z,26.00
2022-09-04T10:03:24.393Z,25.80
2022-09-04T10:06:22.248Z,26.00
2022-09-04T10:09:09.574Z,25.40
2022-09-04T10:11:57.738Z,25.40
2022-09-04T10:14:58.246Z,26.00
2022-09-04T10:17:42.458Z,26.20
2022-09-04T10:20:36.154Z,26.60
2022-09-04T10:23:33.801Z,26.60
2022-09-04T10:26:40.079Z,26.20
2022-09-04T10:29:19.616Z,26.20
2022-09-04T10:31:56.911Z,25.90
2022-09-04T10:34:42.321Z,26.20
2022-09-04T10:37:19.482Z,26.30
2022-09-04T10:40:10.391Z,26.30
2022-09-04T10:42:45.327Z,25.80
2022-09-04T10:45:17.846Z,25.90
2022-09-04T10:48:15.386Z,26.00
2022-09-04T10:51:02.241Z,26.70
2022-09-04T10:53:52.797Z,26.90
2022-09-04T10:56:29.950Z,26.60
2022-09-04T10:59:16.470Z,26.70
2022-09-04T11:02:03.456Z,26.60
2022-09-04T11:05:07.034Z,26.40
2022-09-04T11:07:44.699Z,26.50
2022-09-04T11:10:28.932Z,26.70
2022-09-04T11:13:19.408Z,26.70
2022-09-04T11:15:53.468Z,26.50
2022-09-04T11:18:45.451Z,26.80
2022-09-04T11:21:56.029Z,27.10
2022-09-04T11:25:00.021Z,27.00
2022-09-04T11:27:55.049Z,26.90
2022-09-04T11:30:23.686Z,27.00
2022-09-04T11:33:09.283Z,27.10
2022-09-04T11:35:59.860Z,27.20
2022-09-04T11:39:03.536Z,27.10
2022-09-04T11:41:56.473Z,26.90
2022-09-04T11:44:46.395Z,26.80
2022-09-04T11:47:31.364Z,26.80
2022-09-04T11:50:04.909Z,26.80
2022-09-04T11:52:46.667Z,27.10
2022-09-04T11:55:28.892Z,27.00
2022-09-04T11:58:17.881Z,27.10
2022-09-04T12:00:59.277Z,27.20
2022-09-04T12:03:43.662Z,27.20
2022-09-04T12:06:15.285Z,27.50
2022-09-04T12:09:16.981Z,27.50
2022-09-04T12:12:01.810Z,27.50
2022-09-04T12:14:40.652Z,27.10
2022-09-04T12:17:55.337Z,26.40
2022-09-04T12:20:57.401Z,26.00
2022-09-04T12:23:52.947Z,25.90
2022-09-04T12:26:29.138Z,26.20
2022-09-04T12:29:25.933Z,26.40
2022-09-04T12:32:42.549Z,25.90
2022-09-04T12:35:34.700Z,25.30
2022-09-04T12:38:25.209Z,25.00
2022-09-04T12:40:55.960Z,25.60
2022-09-04T12:43:31.126Z,26.30
2022-09-04T12:46:06.280Z,26.40
2022-09-04T12:48:37.516Z,26.70
2022-09-04T12:51:11.792Z,27.00
2022-09-04T12:54:02.120Z,26.70
2022-09-04T12:56:42.191Z,26.60
2022-09-04T12:59:40.191Z,26.80
2022-09-04T13:02:11.494Z,27.00
2022-09-04T13:04:45.340Z,26.90
2022-09-04T13:07:25.257Z,27.10
2022-09-04T13:09:57.101Z,27.00
2022-09-04T13:12:28.028Z,26.80
2022-09-04T13:15:07.746Z,26.70
2022-09-04T13:17:43.437Z,27.00
2022-09-04T13:20:16.512Z,26.80
2022-09-04T13:22:55.040Z,26.80
2022-09-04T13:25:29.623Z,26.60
2022-09-04T13:28:03.244Z,26.10
2022-09-04T13:30:31.095Z,25.80
2022-09-04T13:33:18.262Z,25.30
2022-09-04T13:35:55.324Z,25.60
2022-09-04T13:38:44.673Z,25.90
2022-09-04T13:41:43.581Z,26.00
2022-09-04T13:44:38.356Z,26.00
2022-09-04T13:47:08.113Z,26.20
2022-09-04T13:49:38.070Z,26.40
2022-09-04T13:52:07.404Z,26.10
2022-09-04T13:54:38.592Z,26.30
2022-09-04T13:57:08.772Z,26.50
2022-09-04T13:59:37.155Z,26.30
2022-09-04T14:02:08.266Z,26.30
2022-09-04T14:04:37.972Z,26.00
2022-09-04T14:07:09.265Z,26.00
2022-09-04T14:09:41.105Z,25.90
2022-09-04T14:12:18.589Z,25.90
2022-09-04T14:15:07.672Z,26.20
2022-09-04T14:17:39.224Z,26.40
2022-09-04T14:20:12.453Z,26.20
2022-09-04T14:22:45.987Z,26.10
2022-09-04T14:25:19.449Z,26.10
2022-09-04T14:27:52.537Z,26.30
2022-09-04T14:30:23.036Z,26.30
2022-09-04T14:32:58.239Z,26.40
2022-09-04T14:35:32.779Z,26.50
2022-09-04T14:38:29.305Z,25.90
2022-09-04T14:41:03.249Z,25.80
2022-09-04T14:43:36.001Z,26.00
2022-09-04T14:46:09.073Z,25.90
2022-09-04T14:48:40.517Z,26.00
2022-09-04T14:51:15.216Z,25.70
2022-09-04T14:53:47.442Z,25.40
2022-09-04T14:56:37.792Z,25.40
2022-09-04T14:59:12.478Z,25.50
2022-09-04T15:01:55.496Z,25.40
2022-09-04T15:04:24.817Z,25.40
2022-09-04T15:07:10.853Z,25.50
2022-09-04T15:09:40.027Z,25.10
2022-09-04T15:12:25.940Z,25.10
2022-09-04T15:14:55.565Z,24.90
2022-09-04T15:17:28.485Z,25.10
2022-09-04T15:19:59.885Z,25.00
2022-09-04T15:22:30.625Z,25.20
2022-09-04T15:25:00.393Z,25.00
2022-09-04T15:27:34.090Z,24.80
2022-09-04T15:30:06.579Z,24.80
2022-09-04T15:32:39.700Z,24.80
2022-09-04T15:35:09.599Z,25.00
2022-09-04T15:37:37.446Z,24.70
2022-09-04T15:40:12.148Z,24.80
2022-09-04T15:42:44.825Z,24.90
2022-09-04T15:45:19.222Z,24.90
2022-09-04T15:48:07.295Z,25.00
2022-09-04T15:50:36.425Z,24.90
2022-09-04T15:53:13.648Z,24.70
2022-09-04T15:55:42.688Z,24.90
2022-09-04T15:58:14.773Z,24.70
2022-09-04T16:01:08.028Z,24.40
2022-09-04T16:03:37.585Z,24.40
2022-09-04T16:06:07.241Z,24.60
2022-09-04T16:08:38.453Z,24.60
2022-09-04T16:11:08.066Z,24.90
2022-09-04T16:13:44.031Z,24.80
2022-09-04T16:16:13.808Z,24.70
2022-09-04T16:18:47.428Z,24.40
2022-09-04T16:21:21.298Z,24.60
2022-09-04T16:23:49.185Z,24.70
2022-09-04T16:26:19.222Z,24.50
2022-09-04T16:28:51.312Z,24.30
2022-09-04T16:31:25.063Z,24.30
2022-09-04T16:33:53.666Z,24.30
2022-09-04T16:36:22.407Z,24.30
2022-09-04T16:38:52.915Z,24.10
2022-09-04T16:41:25.600Z,24.20
2022-09-04T16:44:25.982Z,24.10
2022-09-04T16:47:02.529Z,23.80
2022-09-04T16:49:35.267Z,23.80
2022-09-04T16:52:08.724Z,23.80
2022-09-04T16:54:39.090Z,23.80
2022-09-04T16:57:12.866Z,23.50
2022-09-04T16:59:46.112Z,23.50
2022-09-04T17:02:19.570Z,23.50
2022-09-04T17:04:49.608Z,23.50
2022-09-04T17:07:19.410Z,23.40
2022-09-04T17:09:54.625Z,23.40
2022-09-04T17:12:39.433Z,23.30
2022-09-04T17:15:13.780Z,23.20
2022-09-04T17:17:42.454Z,23.00
2022-09-04T17:20:11.478Z,22.90
2022-09-04T17:25:35.491Z,22.70
2022-09-04T17:29:03.672Z,22.80
2022-09-04T17:29:08.803Z,22.60
2022-09-04T17:31:23.344Z,22.40
2022-09-04T17:40:32.454Z,22.30
2022-09-04T17:40:48.434Z,22.20
2022-09-04T17:40:50.144Z,22.20
2022-09-04T17:42:25.045Z,22.00
2022-09-04T17:44:56.745Z,21.90
2022-09-04T17:47:31.900Z,21.70
2022-09-04T17:49:59.810Z,21.60
2022-09-04T17:52:28.663Z,21.40
2022-09-04T17:55:02.609Z,21.40
2022-09-04T17:57:36.554Z,21.40
2022-09-04T18:00:07.722Z,21.30
2022-09-04T18:02:42.269Z,21.10
2022-09-04T18:05:14.800Z,21.20
2022-09-04T18:08:07.732Z,21.00
2022-09-04T18:10:34.273Z,20.90
2022-09-04T18:13:36.755Z,20.70
2022-09-04T18:16:03.116Z,20.50
2022-09-04T18:18:43.580Z,20.60
2022-09-04T18:21:16.817Z,20.30
2022-09-04T18:23:55.995Z,20.60
2022-09-04T18:26:40.584Z,20.20
2022-09-04T18:32:55.674Z,20.20
2022-09-04T18:37:07.810Z,20.40
2022-09-04T18:37:19.446Z,20.20
2022-09-04T18:38:10.867Z,20.10
2022-09-04T18:41:43.362Z,20.20
2022-09-04T18:50:22.893Z,19.90
2022-09-04T18:50:45.371Z,19.60
2022-09-04T18:50:46.487Z,19.60
2022-09-04T18:51:58.435Z,19.70
2022-09-04T18:54:33.480Z,19.60
2022-09-04T18:57:06.452Z,19.40
2022-09-04T18:59:36.232Z,19.30
2022-09-04T19:02:05.193Z,19.20
2022-09-04T19:04:38.934Z,19.10
2022-09-04T19:07:09.429Z,19.00
2022-09-04T19:10:01.735Z,18.80
2022-09-04T19:12:46.702Z,18.80
2022-09-04T19:15:36.729Z,18.80
2022-09-04T19:18:08.516Z,18.80
2022-09-04T19:20:46.410Z,18.80
2022-09-04T19:23:21.793Z,18.70
2022-09-04T19:25:57.592Z,18.70
2022-09-04T19:28:27.782Z,18.70
2022-09-04T19:30:58.095Z,18.50
2022-09-04T19:33:31.944Z,18.50
2022-09-04T19:36:01.841Z,18.50
2022-09-04T19:43:16.120Z,18.40
2022-09-04T19:45:55.021Z,18.10
2022-09-04T19:46:18.264Z,18.10
2022-09-04T19:47:09.296Z,18.00
2022-09-04T19:53:21.884Z,18.00
2022-09-04T19:53:32.178Z,18.00
2022-09-04T19:55:42.892Z,17.90
2022-09-04T19:58:11.315Z,17.90
2022-09-04T20:00:44.490Z,17.80
2022-09-04T20:03:30.388Z,17.80
2022-09-04T20:06:20.049Z,18.00
2022-09-04T20:08:51.921Z,18.00
2022-09-04T20:11:34.805Z,18.00
2022-09-04T20:14:10.151Z,17.90
2022-09-04T20:16:48.558Z,17.80
2022-09-04T20:19:26.563Z,17.70
2022-09-04T20:21:58.325Z,17.70
2022-09-04T20:24:27.057Z,17.70
2022-09-04T20:26:59.879Z,17.70
2022-09-04T20:29:30.859Z,17.60
2022-09-04T20:32:01.096Z,17.60
2022-09-04T20:34:33.098Z,17.50
2022-09-04T20:37:43.573Z,17.40
2022-09-04T20:40:17.981Z,17.40
2022-09-04T20:42:56.196Z,17.40
2022-09-04T20:49:16.658Z,17.30
2022-09-04T20:52:51.602Z,17.00
2022-09-04T20:52:58.240Z,17.20
2022-09-04T20:54:11.064Z,17.20
2022-09-04T20:57:20.231Z,17.20
2022-09-04T21:03:13.781Z,17.20
2022-09-04T21:03:23.558Z,17.10
2022-09-04T21:05:43.487Z,17.00
2022-09-04T21:08:15.222Z,17.20
2022-09-04T21:10:48.215Z,17.30
2022-09-04T21:13:19.718Z,17.30
2022-09-04T21:15:53.132Z,17.10
2022-09-04T21:18:42.686Z,17.20
2022-09-04T21:21:22.147Z,17.10
2022-09-04T21:24:18.325Z,17.00
2022-09-04T21:27:02.133Z,16.90
2022-09-04T21:29:39.692Z,16.70
2022-09-04T21:32:46.201Z,16.50
2022-09-04T21:35:16.781Z,16.40
2022-09-04T21:37:47.916Z,16.40
2022-09-04T21:40:59.023Z,16.30
2022-09-04T21:44:21.026Z,16.00
2022-09-04T21:46:55.925Z,15.90
2022-09-04T21:53:33.381Z,15.80
2022-09-04T22:02:29.730Z,15.90
2022-09-04T22:03:30.080Z,15.80
2022-09-04T22:06:04.657Z,15.70
2022-09-04T22:12:18.265Z,15.80
2022-09-04T22:13:32.171Z,15.80
2022-09-04T22:14:42.838Z,16.00
2022-09-04T22:17:21.140Z,15.90
2022-09-04T22:20:19.956Z,15.80
2022-09-04T22:23:20.076Z,16.00
2022-09-04T22:25:54.843Z,15.90
2022-09-04T22:28:53.084Z,15.90
2022-09-04T22:31:50.056Z,16.00
2022-09-04T22:34:31.482Z,15.60
2022-09-04T22:37:08.882Z,15.50
2022-09-04T22:39:58.663Z,15.30
2022-09-04T22:42:38.301Z,15.30
2022-09-04T22:45:24.179Z,15.20
2022-09-04T22:48:00.327Z,15.30
2022-09-04T22:50:48.976Z,15.30
2022-09-04T22:53:46.573Z,15.30
2022-09-04T22:56:24.806Z,15.60
2022-09-04T22:59:30.584Z,15.60
2022-09-04T23:02:54.189Z,15.60
2022-09-04T23:05:54.161Z,15.50
2022-09-04T23:13:44.522Z,15.50
2022-09-04T23:13:59.885Z,15.40
2022-09-04T23:14:52.432Z,15.20
2022-09-04T23:17:32.424Z,15.20
2022-09-04T23:26:32.395Z,15.20
2022-09-04T23:26:45.673Z,15.10
2022-09-04T23:26:59.719Z,15.10
2022-09-04T23:29:50.074Z,15.30
2022-09-04T23:32:37.490Z,15.10
2022-09-04T23:35:16.085Z,15.10
2022-09-04T23:38:01.528Z,14.80
2022-09-04T23:40:36.669Z,14.70
2022-09-04T23:43:28.177Z,14.50
2022-09-04T23:46:08.057Z,14.60
2022-09-04T23:49:06.697Z,14.60
2022-09-04T23:51:40.780Z,14.90
2022-09-04T23:54:26.081Z,14.80
2022-09-04T23:56:55.379Z,14.70
2022-09-04T23:59:37.796Z,15.00
